Time;durP1;ratioP1;P1;durP2;ratioP2;P2;SDS_P1;SDS_P2;PMS_P1;PMS_P2;Temp;Humidity;BMP_temperature;BMP_pressure;BME280_temperature;BME280_humidity;BME280_pressure;Samples;Min_cycle;Max_cycle;Signal;HPM_P1;HPM_P2
2022/09/30 00:01:31;;;;;;;22.43;10.60;;;;;;;4.59;88.10;98200.12;2249442;79;21363;-81
2022/09/30 00:04:31;;;;;;;14.33;9.10;;;;;;;4.67;88.63;98204.64;2249401;78;20960;-81
2022/09/30 00:07:32;;;;;;;13.03;9.00;;;;;;;4.73;88.83;98200.04;2249348;78;20896;-81
2022/09/30 00:10:32;;;;;;;11.10;8.37;;;;;;;4.77;88.31;98204.45;2249388;78;20956;-79
2022/09/30 00:13:33;;;;;;;33.80;11.17;;;;;;;4.75;88.27;98202.25;2251187;77;20908;-80
2022/09/30 00:16:33;;;;;;;16.30;10.20;;;;;;;4.80;88.56;98203.23;2291123;78;20995;-81
2022/09/30 00:19:34;;;;;;;20.63;10.30;;;;;;;4.76;87.78;98204.86;2291094;78;20975;-81
2022/09/30 00:22:34;;;;;;;13.67;9.37;;;;;;;4.69;87.73;98200.80;2291235;78;20924;-81
2022/09/30 00:25:34;;;;;;;14.20;8.67;;;;;;;4.71;88.08;98190.95;2291055;78;21647;-81
2022/09/30 00:28:35;;;;;;;13.30;9.00;;;;;;;4.76;88.26;98194.94;2291016;78;20991;-81
2022/09/30 00:31:38;;;;;;;16.13;9.17;;;;;;;4.74;87.89;98203.95;2291240;78;20940;-81
2022/09/30 00:34:38;;;;;;;12.03;9.00;;;;;;;4.72;87.65;98208.63;2290577;78;21002;-81
2022/09/30 00:37:38;;;;;;;15.37;8.87;;;;;;;4.73;87.84;98207.38;2291306;78;20912;-81
2022/09/30 00:40:39;;;;;;;23.87;9.77;;;;;;;4.80;88.16;98213.57;2291241;78;20936;-82
2022/09/30 00:43:40;;;;;;;17.33;10.10;;;;;;;4.85;88.16;98218.44;2291459;78;20928;-81
2022/09/30 00:46:40;;;;;;;75.40;12.67;;;;;;;4.85;88.04;98220.15;2291620;78;21034;-82
2022/09/30 00:49:40;;;;;;;18.90;9.47;;;;;;;4.86;88.15;98218.02;2291959;78;21363;-82
2022/09/30 00:52:40;;;;;;;19.80;9.47;;;;;;;4.91;88.36;98217.29;2291609;78;20931;-80
2022/09/30 00:55:41;;;;;;;17.07;9.37;;;;;;;4.92;88.28;98215.16;2291569;78;20948;-81
2022/09/30 00:58:41;;;;;;;14.43;10.00;;;;;;;4.93;88.17;98210.44;2291278;78;21007;-82
2022/09/30 01:01:42;;;;;;;13.93;9.17;;;;;;;4.97;88.24;98210.09;2291397;78;21288;-82
2022/09/30 01:04:42;;;;;;;1537.23;131.47;;;;;;;5.03;88.39;98202.48;2292008;78;20904;-82
2022/09/30 01:07:43;;;;;;;42.57;11.57;;;;;;;5.07;88.52;98196.53;2291302;78;20913;-82
2022/09/30 01:10:43;;;;;;;19.53;10.50;;;;;;;5.14;88.71;98201.02;2291411;78;20968;-82
2022/09/30 01:13:43;;;;;;;19.97;9.67;;;;;;;5.22;88.73;98202.52;2291253;78;21350;-81
2022/09/30 01:16:44;;;;;;;56.77;13.03;;;;;;;5.26;88.62;98201.32;2290974;78;21324;-79
2022/09/30 01:19:44;;;;;;;26.47;12.30;;;;;;;5.28;88.35;98210.41;2291498;78;20938;-81
2022/09/30 01:22:45;;;;;;;19.30;11.00;;;;;;;5.26;87.86;98212.09;2291002;78;20940;-80
2022/09/30 01:25:45;;;;;;;46.07;13.07;;;;;;;5.26;87.94;98213.39;2291340;78;20904;-81
2022/09/30 01:28:45;;;;;;;25.90;10.70;;;;;;;5.24;87.90;98217.23;2291069;78;21296;-81
2022/09/30 01:31:46;;;;;;;21.30;9.37;;;;;;;5.23;87.75;98224.96;2291534;78;20963;-80
2022/09/30 01:34:46;;;;;;;19.17;10.30;;;;;;;5.19;87.27;98230.88;2291035;78;20994;-81
2022/09/30 01:37:47;;;;;;;21.60;9.00;;;;;;;5.18;87.36;98227.83;2291151;78;20963;-81
2022/09/30 01:40:47;;;;;;;21.33;9.67;;;;;;;5.16;87.04;98229.51;2291225;78;20904;-81
2022/09/30 01:43:47;;;;;;;33.00;10.80;;;;;;;5.07;86.91;98231.05;2291328;78;21304;-79
2022/09/30 01:46:48;;;;;;;21.43;8.30;;;;;;;5.00;86.91;98226.56;2290950;78;21332;-80
2022/09/30 01:49:48;;;;;;;12.50;8.93;;;;;;;4.95;86.79;98233.75;2291157;78;20968;-80
2022/09/30 01:52:49;;;;;;;13.20;9.37;;;;;;;4.89;86.96;98238.36;2291233;78;20936;-80
2022/09/30 01:55:49;;;;;;;13.27;8.80;;;;;;;4.85;86.74;98230.07;2291227;78;20940;-80
2022/09/30 01:58:50;;;;;;;23.77;8.77;;;;;;;4.82;86.71;98230.00;2291141;78;21297;-79
2022/09/30 02:01:50;;;;;;;20.33;9.43;;;;;;;4.72;86.54;98222.44;2291134;78;20904;-81
2022/09/30 02:04:51;;;;;;;12.63;9.00;;;;;;;4.64;86.51;98221.37;2291672;78;20944;-81
2022/09/30 02:07:52;;;;;;;63.70;12.07;;;;;;;4.58;86.92;98225.52;2291418;78;20936;-78
2022/09/30 02:10:52;;;;;;;23.97;10.17;;;;;;;4.58;86.92;98225.52;2292195;78;20932;-80
2022/09/30 02:13:52;;;;;;;36.77;10.77;;;;;;;4.58;87.33;98241.02;2291586;78;20952;-81
2022/09/30 02:16:52;;;;;;;93.90;13.17;;;;;;;4.58;87.33;98241.02;2290694;78;20940;-79
2022/09/30 02:19:53;;;;;;;15.50;8.67;;;;;;;4.62;87.71;98242.42;2291456;78;20896;-80
2022/09/30 02:22:53;;;;;;;16.27;8.70;;;;;;;4.62;87.63;98237.26;2291828;78;21280;-81
2022/09/30 02:25:54;;;;;;;28.33;10.03;;;;;;;4.59;87.38;98234.59;2291288;78;20932;-81
2022/09/30 02:28:54;;;;;;;15.43;9.67;;;;;;;4.54;87.31;98239.19;2291595;78;20987;-82
2022/09/30 02:31:54;;;;;;;30.70;9.60;;;;;;;4.53;87.45;98238.31;2291762;78;20921;-82
2022/09/30 02:35:06;;;;;;;38.07;13.43;;;;;;;4.74;89.83;98236.69;2291636;78;20971;-82
2022/09/30 02:38:07;;;;;;;43.77;10.80;;;;;;;4.82;88.08;98243.34;2291803;78;20868;-82
2022/09/30 02:41:06;;;;;;;19.23;10.13;;;;;;;4.80;87.89;98247.19;2290946;78;20936;-81
2022/09/30 02:44:07;;;;;;;16.83;9.77;;;;;;;4.83;88.05;98252.44;2291237;78;20964;-81
2022/09/30 02:47:07;;;;;;;16.40;9.70;;;;;;;4.89;88.16;98250.00;2290851;78;20976;-81
2022/09/30 02:50:08;;;;;;;18.10;10.23;;;;;;;4.90;88.08;98250.45;2291087;78;21035;-82
2022/09/30 02:53:08;;;;;;;14.83;9.63;;;;;;;4.93;88.13;98244.06;2291208;78;20944;-81
2022/09/30 02:56:09;;;;;;;18.87;10.60;;;;;;;4.98;88.33;98247.64;2290349;78;20920;-81
2022/09/30 02:59:10;;;;;;;14.97;10.83;;;;;;;5.04;88.49;98252.95;2290253;78;21356;-80
2022/09/30 03:02:10;;;;;;;17.90;9.77;;;;;;;5.12;88.44;98257.89;2289820;78;20881;-81
2022/09/30 03:05:10;;;;;;;14.40;9.80;;;;;;;5.15;88.23;98253.63;2290285;78;20983;-81
2022/09/30 03:08:11;;;;;;;14.13;9.37;;;;;;;5.12;88.11;98247.55;2290026;78;20947;-81
2022/09/30 03:11:11;;;;;;;72.60;14.07;;;;;;;5.12;88.14;98245.38;2289966;78;20940;-81
2022/09/30 03:14:12;;;;;;;54.10;13.87;;;;;;;5.13;88.50;98251.88;2289858;78;21007;-81
2022/09/30 03:17:13;;;;;;;19.27;10.03;;;;;;;5.19;88.70;98255.45;2280278;78;20970;-79
2022/09/30 03:20:13;;;;;;;20.47;9.73;;;;;;;5.22;88.43;98257.72;2280671;78;21259;-81
2022/09/30 03:23:13;;;;;;;89.57;16.07;;;;;;;5.22;88.32;98257.72;2281149;77;20946;-80
2022/09/30 03:26:14;;;;;;;25.30;10.03;;;;;;;5.26;88.59;98266.43;2281051;78;20922;-80
2022/09/30 03:29:14;;;;;;;36.00;12.07;;;;;;;5.30;88.44;98266.54;2280417;78;20993;-79
2022/09/30 03:32:14;;;;;;;24.93;10.43;;;;;;;5.31;88.38;98273.46;2280560;78;20989;-81
2022/09/30 03:35:14;;;;;;;24.50;11.20;;;;;;;5.35;88.55;98270.11;2280527;78;21344;-80
2022/09/30 03:38:15;;;;;;;20.83;9.80;;;;;;;5.38;88.64;98262.41;2281067;78;20981;-79
2022/09/30 03:41:15;;;;;;;22.83;10.13;;;;;;;5.41;88.50;98259.02;2282067;78;20910;-81
2022/09/30 03:44:19;;;;;;;16.60;9.80;;;;;;;5.39;88.28;98262.87;2281291;78;20942;-80
2022/09/30 03:47:19;;;;;;;12.50;10.70;;;;;;;5.35;88.26;98263.64;2280654;78;21467;-82
2022/09/30 03:50:19;;;;;;;32.83;11.13;;;;;;;5.39;88.68;98271.05;2280543;78;20946;-81
2022/09/30 03:53:20;;;;;;;20.50;10.80;;;;;;;5.42;88.59;98272.00;2280408;78;21009;-81
2022/09/30 03:56:20;;;;;;;33.47;12.53;;;;;;;5.43;88.66;98274.16;2280349;78;21663;-79
2022/09/30 03:59:21;;;;;;;24.23;11.90;;;;;;;5.49;88.79;98282.07;2280005;78;20898;-81
2022/09/30 04:02:21;;;;;;;22.63;11.20;;;;;;;5.47;88.78;98281.58;2279965;78;20924;-81
2022/09/30 04:05:21;;;;;;;17.43;11.10;;;;;;;5.55;89.23;98277.45;2279748;78;20917;-80
2022/09/30 04:08:22;;;;;;;29.17;12.43;;;;;;;5.65;89.36;98277.69;2279341;78;21357;-81
2022/09/30 04:11:22;;;;;;;21.33;11.43;;;;;;;5.69;89.20;98283.39;2279107;78;20933;-80
2022/09/30 04:14:23;;;;;;;28.33;11.37;;;;;;;5.71;89.02;98283.00;2279935;77;20945;-81
2022/09/30 04:17:23;;;;;;;36.93;11.83;;;;;;;5.75;89.15;98281.35;2279670;78;21381;-80
2022/09/30 04:20:24;;;;;;;32.90;13.17;;;;;;;5.80;89.33;98282.75;2280105;78;20910;-80
2022/09/30 04:23:24;;;;;;;19.50;10.87;;;;;;;5.88;89.45;98282.48;2280387;78;20891;-81
2022/09/30 04:26:24;;;;;;;17.77;10.67;;;;;;;5.93;89.47;98279.61;2280799;78;21633;-81
2022/09/30 04:29:25;;;;;;;17.20;11.70;;;;;;;5.97;89.46;98284.89;2280061;78;21009;-81
2022/09/30 04:32:27;;;;;;;19.63;12.60;;;;;;;6.05;89.67;98288.94;2281100;78;20915;-81
2022/09/30 04:35:28;;;;;;;45.80;13.27;;;;;;;6.10;89.76;98286.05;2280555;78;20914;-81
2022/09/30 04:38:27;;;;;;;25.77;12.27;;;;;;;6.17;90.12;98293.52;2280296;78;20960;-80
2022/09/30 04:41:28;;;;;;;21.00;13.00;;;;;;;6.22;90.12;98303.14;2279697;78;21350;-80
2022/09/30 04:44:29;;;;;;;18.60;12.03;;;;;;;6.28;90.10;98307.16;2279009;78;20997;-80
2022/09/30 04:47:28;;;;;;;20.37;14.87;;;;;;;6.31;90.40;98311.52;2279914;78;21016;-80
2022/09/30 04:50:30;;;;;;;18.07;13.83;;;;;;;6.32;90.49;98311.98;2280413;78;21468;-81
2022/09/30 04:53:29;;;;;;;17.77;11.97;;;;;;;6.35;90.72;98314.20;2280283;78;20918;-80
2022/09/30 04:56:29;;;;;;;21.17;11.57;;;;;;;6.41;90.98;98306.97;2279043;78;20926;-80
2022/09/30 04:59:30;;;;;;;23.53;11.60;;;;;;;6.48;91.16;98310.13;2278724;78;20910;-78
2022/09/30 05:02:30;;;;;;;18.63;11.97;;;;;;;6.57;91.10;98315.92;2278686;78;20977;-81
2022/09/30 05:05:30;;;;;;;119.17;18.40;;;;;;;6.64;91.07;98312.59;2280062;78;21294;-79
2022/09/30 05:08:34;;;;;;;25.07;12.43;;;;;;;6.72;91.00;98317.50;2279590;78;20918;-80
2022/09/30 05:11:36;;;;;;;14.67;11.70;;;;;;;6.89;91.14;98317.39;2279279;78;20914;-79
2022/09/30 05:14:35;;;;;;;40.67;26.83;;;;;;;6.89;91.14;98317.39;2279008;78;20950;-81
2022/09/30 05:17:35;;;;;;;37.80;23.77;;;;;;;6.98;90.68;98316.28;2245776;78;20992;-80
2022/09/30 05:20:35;;;;;;;21.97;13.63;;;;;;;7.08;90.73;98309.95;2247204;78;21293;-79
2022/09/30 05:23:37;;;;;;;29.90;12.00;;;;;;;7.16;90.63;98309.66;2245790;78;20935;-80
2022/09/30 05:26:36;;;;;;;19.23;12.53;;;;;;;7.24;90.50;98313.25;2246029;78;21278;-81
2022/09/30 05:29:37;;;;;;;16.07;12.17;;;;;;;7.32;90.73;98312.53;2245952;79;21003;-80
2022/09/30 05:32:38;;;;;;;22.43;12.57;;;;;;;7.44;90.77;98310.55;2246376;78;20955;-80
2022/09/30 05:35:38;;;;;;;26.17;14.63;;;;;;;7.53;91.11;98312.42;2247168;78;20915;-80
2022/09/30 05:38:39;;;;;;;40.90;16.50;;;;;;;7.68;91.61;98308.33;2247068;79;20924;-80
2022/09/30 05:41:39;;;;;;;22.33;15.37;;;;;;;7.84;91.71;98309.45;2248266;79;20909;-81
2022/09/30 05:44:40;;;;;;;24.60;15.20;;;;;;;7.96;91.59;98309.62;2246799;78;21568;-80
2022/09/30 05:47:41;;;;;;;29.20;16.93;;;;;;;8.10;91.66;98305.03;2246236;78;20968;-79
2022/09/30 05:50:40;;;;;;;24.27;16.50;;;;;;;8.20;91.87;98305.16;2246049;79;20940;-80
2022/09/30 05:53:41;;;;;;;22.37;15.97;;;;;;;8.34;91.78;98310.99;2246695;78;20896;-80
2022/09/30 05:56:41;;;;;;;20.67;16.40;;;;;;;8.44;91.74;98310.25;2245984;79;21305;-79
2022/09/30 05:59:42;;;;;;;23.33;16.53;;;;;;;8.55;91.81;98312.55;2245512;78;20908;-80
2022/09/30 06:02:43;;;;;;;24.80;16.67;;;;;;;8.67;91.69;98319.22;2245216;78;20980;-80
2022/09/30 06:05:44;;;;;;;24.90;16.67;;;;;;;8.80;91.72;98325.00;2246398;78;21399;-80
2022/09/30 06:08:43;;;;;;;24.30;17.17;;;;;;;8.91;91.49;98319.90;2246597;78;20953;-80
2022/09/30 06:11:44;;;;;;;26.63;17.33;;;;;;;8.99;91.47;98327.36;2246684;78;20955;-81
2022/09/30 06:14:44;;;;;;;24.97;16.57;;;;;;;9.08;91.31;98318.76;2246090;79;20900;-80
2022/09/30 06:17:45;;;;;;;21.57;16.00;;;;;;;9.17;91.13;98319.72;2276564;78;21433;-81
2022/09/30 06:20:47;;;;;;;22.77;14.40;;;;;;;9.23;90.89;98327.58;2278879;78;20938;-80
2022/09/30 06:23:47;;;;;;;21.80;15.30;;;;;;;9.32;90.75;98335.91;2277737;78;20914;-81
2022/09/30 06:26:48;;;;;;;19.03;13.43;;;;;;;9.39;90.60;98337.70;2277794;78;22033;-82
2022/09/30 06:29:48;;;;;;;19.30;14.20;;;;;;;9.45;90.50;98335.14;2278862;78;20969;-80
2022/09/30 06:32:49;;;;;;;34.80;14.93;;;;;;;9.50;90.48;98333.45;2278609;78;20922;-81
2022/09/30 06:35:49;;;;;;;16.87;12.50;;;;;;;9.56;90.53;98325.72;2279071;78;21648;-81
2022/09/30 06:38:51;;;;;;;17.83;11.27;;;;;;;9.61;90.39;98324.87;2280241;78;20930;-80
2022/09/30 06:41:50;;;;;;;18.40;11.67;;;;;;;9.70;90.02;98332.76;2279392;78;20918;-82
2022/09/30 06:44:50;;;;;;;15.53;10.90;;;;;;;9.74;90.12;98336.70;2278650;78;20926;-79
2022/09/30 06:47:51;;;;;;;12.07;10.80;;;;;;;9.82;89.77;98340.66;2278588;78;21660;-80
2022/09/30 06:50:54;;;;;;;14.00;11.43;;;;;;;9.92;90.09;98341.59;2279399;78;20914;-80
2022/09/30 06:53:52;;;;;;;63.73;14.27;;;;;;;10.01;89.91;98344.26;2278782;78;20973;-80
2022/09/30 06:56:52;;;;;;;17.20;10.43;;;;;;;10.09;89.65;98348.66;2277861;78;20945;-77
2022/09/30 06:59:53;;;;;;;19.00;11.87;;;;;;;10.15;89.53;98352.60;2278778;78;21302;-80
2022/09/30 07:02:53;;;;;;;13.33;11.07;;;;;;;10.20;89.76;98353.53;2278870;78;20962;-80
2022/09/30 07:05:55;;;;;;;17.80;12.03;;;;;;;10.25;89.41;98352.69;2278419;78;20965;-83
2022/09/30 07:08:55;;;;;;;23.23;11.37;;;;;;;10.25;89.32;98345.73;2278562;78;21583;-80
2022/09/30 07:11:54;;;;;;;12.47;11.00;;;;;;;10.28;88.57;98344.88;2278711;78;20965;-83
2022/09/30 07:14:58;;;;;;;24.60;11.20;;;;;;;10.30;88.55;98352.28;2278678;78;20937;-80
2022/09/30 07:17:58;;;;;;;17.57;10.67;;;;;;;10.31;88.46;98354.89;2247658;78;20984;-79
2022/09/30 07:20:58;;;;;;;15.57;9.93;;;;;;;10.37;88.71;98351.02;2245772;78;21319;-78
2022/09/30 07:23:58;;;;;;;13.57;9.43;;;;;;;10.43;88.82;98348.89;2245804;78;20908;-80
2022/09/30 07:26:59;;;;;;;13.33;9.63;;;;;;;10.49;88.39;98351.53;2245759;78;20888;-80
2022/09/30 07:30:01;;;;;;;30.50;21.27;;;;;;;10.51;88.47;98351.10;2246197;79;20991;-77
2022/09/30 07:33:00;;;;;;;14.70;9.70;;;;;;;10.57;88.54;98357.66;2246479;78;20935;-82
2022/09/30 07:36:00;;;;;;;11.17;9.40;;;;;;;10.62;88.42;98362.89;2246711;79;20916;-80
2022/09/30 07:39:04;;;;;;;11.30;9.17;;;;;;;10.65;88.16;98366.82;2246029;78;20939;-80
2022/09/30 07:42:03;;;;;;;11.67;9.87;;;;;;;10.69;88.16;98366.84;2245583;79;20908;-82
2022/09/30 07:45:01;;;;;;;12.73;10.17;;;;;;;10.74;87.88;98366.42;2245370;78;20947;-82
2022/09/30 07:48:34;;;;;;;15.27;9.80;;;;;;;10.79;88.11;98362.09;2246361;78;20960;-83
2022/09/30 07:51:05;;;;;;;15.70;10.77;;;;;;;10.87;88.12;98362.54;2246628;78;20920;-83
2022/09/30 07:54:07;;;;;;;13.67;10.77;;;;;;;10.93;87.58;98361.25;2222568;79;20881;-82
2022/09/30 07:57:08;;;;;;;21.03;12.80;;;;;;;10.97;87.49;98366.92;2245326;78;20928;-83
2022/09/30 08:00:08;;;;;;;14.30;11.53;;;;;;;10.98;87.22;98366.05;2244694;79;21403;-82
2022/09/30 08:03:09;;;;;;;15.03;11.83;;;;;;;10.97;87.36;98362.57;2245022;78;20955;-82
2022/09/30 08:06:09;;;;;;;16.93;11.90;;;;;;;10.99;87.56;98363.45;2246279;79;20900;-83
2022/09/30 08:09:11;;;;;;;13.47;11.57;;;;;;;10.98;87.66;98364.75;2218581;79;20936;-81
2022/09/30 08:12:12;;;;;;;16.53;11.87;;;;;;;10.97;87.63;98373.45;2245351;79;20987;-80
2022/09/30 08:15:12;;;;;;;15.73;11.23;;;;;;;10.99;87.24;98369.98;2246334;78;21318;-81
2022/09/30 08:18:12;;;;;;;16.07;12.23;;;;;;;11.01;87.81;98369.98;2285569;77;21018;-81
2022/09/30 08:21:13;;;;;;;14.90;11.00;;;;;;;11.02;87.50;98367.38;2287944;78;21300;-81
2022/09/30 08:24:13;;;;;;;12.53;10.60;;;;;;;10.99;87.29;98373.89;2288257;78;20912;-81
2022/09/30 08:27:14;;;;;;;14.03;11.23;;;;;;;10.96;87.44;98375.63;2287435;78;20908;-81
2022/09/30 08:30:14;;;;;;;16.40;11.47;;;;;;;10.96;87.74;98378.23;2287771;78;20908;-80
2022/09/30 08:33:15;;;;;;;14.40;12.07;;;;;;;10.96;87.37;98372.58;2287505;78;21265;-80
2022/09/30 08:36:15;;;;;;;26.10;18.80;;;;;;;10.93;87.68;98376.92;2287976;77;21383;-81
2022/09/30 08:39:15;;;;;;;27.07;19.17;;;;;;;10.90;88.03;98378.22;2287392;78;20916;-80
2022/09/30 08:42:16;;;;;;;21.40;17.67;;;;;;;10.95;88.66;98377.80;2288873;78;20892;-80
2022/09/30 08:45:16;;;;;;;25.33;18.93;;;;;;;10.98;88.30;98381.72;2287421;78;20889;-83
2022/09/30 08:48:17;;;;;;;25.83;18.33;;;;;;;10.96;88.33;98378.23;2288287;78;20991;-81
2022/09/30 08:51:19;;;;;;;23.87;21.35;;;;;;;10.91;88.49;98373.00;2288709;78;20924;-83
2022/09/30 08:54:18;;;;;;;32.23;18.90;;;;;;;10.93;88.88;98374.31;2289255;78;20907;-83
2022/09/30 08:57:18;;;;;;;26.43;18.53;;;;;;;10.92;88.91;98375.17;2289650;78;20924;-82
2022/09/30 09:00:18;;;;;;;31.50;18.73;;;;;;;10.97;89.16;98377.37;2289087;78;20928;-83
2022/09/30 09:03:19;;;;;;;29.80;18.17;;;;;;;11.01;89.19;98379.98;2290056;78;20943;-82
2022/09/30 09:06:19;;;;;;;20.93;15.90;;;;;;;11.09;89.46;98383.93;2289500;78;20947;-82
2022/09/30 09:09:20;;;;;;;20.00;15.93;;;;;;;11.15;89.33;98379.59;2289831;78;21358;-82
2022/09/30 09:12:23;;;;;;;23.23;15.97;;;;;;;11.22;89.25;98388.31;2289119;78;21316;-80
2022/09/30 09:15:24;;;;;;;29.47;18.07;;;;;;;11.30;89.24;98385.74;2289360;78;20951;-82
2022/09/30 09:18:24;;;;;;;27.02;17.52;;;;;;;11.31;89.54;98385.75;2288810;78;21462;-81
2022/09/30 09:21:25;;;;;;;22.77;16.13;;;;;;;11.42;89.72;98377.92;2288927;78;20967;-80
2022/09/30 09:24:25;;;;;;;19.37;14.78;;;;;;;11.51;89.17;98379.23;2289128;78;20940;-83
2022/09/30 09:27:25;;;;;;;20.07;13.10;;;;;;;11.63;89.14;98377.06;2289976;78;21292;-83
2022/09/30 09:30:26;;;;;;;15.00;13.30;;;;;;;11.71;88.48;98376.63;2289588;78;20943;-82
2022/09/30 09:33:28;;;;;;;14.68;12.37;;;;;;;11.76;88.72;98382.72;2288902;78;20932;-82
2022/09/30 09:36:26;;;;;;;16.42;12.73;;;;;;;11.82;88.85;98387.98;2287621;78;20939;-83
2022/09/30 09:39:27;;;;;;;17.67;12.05;;;;;;;11.84;88.67;98391.47;2288419;78;20964;-83
2022/09/30 09:42:27;;;;;;;19.15;12.70;;;;;;;11.85;87.99;98393.22;2289165;78;20901;-83
2022/09/30 09:45:28;;;;;;;14.85;11.48;;;;;;;11.82;88.24;98390.60;2288147;78;20904;-83
2022/09/30 09:48:34;;;;;;;11.93;10.30;;;;;;;11.82;88.08;98388.42;2288173;78;20960;-83
2022/09/30 09:51:29;;;;;;;14.55;11.45;;;;;;;11.87;87.92;98383.63;2289164;78;20920;-82
2022/09/30 09:54:34;;;;;;;11.20;9.88;;;;;;;11.88;88.18;98386.67;2289789;78;21580;-83
2022/09/30 09:57:32;;;;;;;13.15;10.40;;;;;;;11.91;88.79;98389.72;2289193;78;20912;-81
2022/09/30 10:03:46;;;;;;;12.53;10.23;;;;;;;12.01;88.28;98400.17;2288879;78;20873;-81
2022/09/30 10:06:45;;;;;;;15.45;10.10;;;;;;;12.07;88.06;98399.30;2289090;78;21230;-82
2022/09/30 10:09:46;;;;;;;14.30;10.43;;;;;;;12.09;88.03;98398.42;2287806;78;20936;-81
2022/09/30 10:12:46;;;;;;;12.50;9.98;;;;;;;12.11;87.76;98394.05;2287572;78;21249;-84
2022/09/30 10:15:47;;;;;;;15.53;10.55;;;;;;;12.19;87.95;98392.77;2287920;78;20939;-82
2022/09/30 10:18:47;;;;;;;13.62;9.90;;;;;;;12.23;87.54;98393.20;2287265;78;21378;-82
2022/09/30 10:21:47;;;;;;;15.93;10.65;;;;;;;12.27;87.62;98387.52;2287825;78;20880;-82
2022/09/30 10:24:48;;;;;;;13.03;10.53;;;;;;;12.24;87.71;98382.30;2288407;78;20940;-82
2022/09/30 10:27:48;;;;;;;15.63;11.83;;;;;;;12.27;87.83;98391.45;2288222;78;21395;-80
2022/09/30 10:30:49;;;;;;;17.40;11.40;;;;;;;12.25;87.69;98391.89;2288088;78;20984;-79
2022/09/30 10:33:49;;;;;;;21.42;12.78;;;;;;;12.22;88.08;98387.97;2287543;78;20936;-81
2022/09/30 10:36:49;;;;;;;14.28;11.60;;;;;;;12.18;88.42;98394.08;2287668;78;20917;-81
2022/09/30 10:39:50;;;;;;;14.45;12.95;;;;;;;12.26;88.74;98392.32;2288023;78;20924;-82
2022/09/30 10:42:50;;;;;;;16.32;12.85;;;;;;;12.23;88.04;98400.17;2288578;78;21344;-81
2022/09/30 10:45:51;;;;;;;22.82;12.85;;;;;;;12.22;88.21;98399.30;2288043;78;20935;-81
2022/09/30 10:48:53;;;;;;;18.05;11.45;;;;;;;12.25;88.26;98403.22;2287021;78;21003;-81
2022/09/30 10:51:51;;;;;;;16.93;11.35;;;;;;;12.23;88.15;98401.48;2287743;78;21306;-81
2022/09/30 10:54:55;;;;;;;16.05;10.98;;;;;;;12.17;88.48;98405.42;2288293;78;21008;-80
2022/09/30 10:57:52;;;;;;;16.87;11.53;;;;;;;12.15;88.54;98407.17;2287812;78;20919;-81
2022/09/30 11:00:53;;;;;;;14.58;12.10;;;;;;;12.07;88.72;98408.45;2288024;78;20925;-81
2022/09/30 11:03:53;;;;;;;18.30;12.18;;;;;;;11.96;88.86;98414.13;2288225;78;20959;-81
2022/09/30 11:06:54;;;;;;;15.55;12.60;;;;;;;11.88;89.34;98413.27;2287969;78;20967;-80
2022/09/30 11:09:54;;;;;;;16.97;13.18;;;;;;;11.82;89.65;98413.27;2287618;78;20943;-79
2022/09/30 11:12:54;;;;;;;15.45;12.90;;;;;;;11.73;90.14;98413.66;2287506;78;21626;-81
2022/09/30 11:15:55;;;;;;;14.87;12.20;;;;;;;11.58;90.45;98414.96;2286892;78;20936;-80
2022/09/30 11:18:55;;;;;;;15.93;12.85;;;;;;;11.51;90.75;98428.02;2278350;78;20997;-82
2022/09/30 11:21:56;;;;;;;14.45;12.47;;;;;;;11.44;91.84;98432.37;2278544;78;21392;-83
2022/09/30 11:24:56;;;;;;;17.17;12.60;;;;;;;11.37;91.46;98434.09;2278354;78;20903;-83
2022/09/30 11:27:56;;;;;;;19.73;13.20;;;;;;;11.34;92.17;98434.52;2278395;78;20934;-82
2022/09/30 11:30:57;;;;;;;22.90;13.25;;;;;;;11.32;91.97;98430.60;2279199;78;21409;-80
2022/09/30 11:33:57;;;;;;;18.23;12.33;;;;;;;11.36;92.19;98434.09;2279307;78;20922;-82
2022/09/30 11:36:58;;;;;;;15.65;11.73;;;;;;;11.39;92.61;98432.80;2278671;78;20976;-80
2022/09/30 11:39:58;;;;;;;16.07;11.30;;;;;;;11.41;92.86;98437.59;2278206;78;20965;-82
2022/09/30 11:42:58;;;;;;;16.97;11.90;;;;;;;11.37;92.61;98439.33;2278485;78;21368;-82
2022/09/30 11:45:59;;;;;;;15.63;10.93;;;;;;;11.36;92.98;98440.20;2278142;78;20914;-83
2022/09/30 11:48:59;;;;;;;14.23;10.72;;;;;;;11.38;93.21;98434.53;2278522;78;21465;-85
2022/09/30 11:52:00;;;;;;;12.93;11.23;;;;;;;11.35;93.11;98438.45;2278519;78;21658;-83
2022/09/30 11:55:00;;;;;;;12.73;10.50;;;;;;;11.33;93.40;98440.19;2279376;78;20905;-83
2022/09/30 11:58:00;;;;;;;14.63;12.93;;;;;;;11.35;93.54;98438.88;2280234;78;20942;-83
2022/09/30 12:01:01;;;;;;;15.83;11.68;;;;;;;11.39;93.70;98442.81;2279300;78;21426;-81
2022/09/30 12:04:01;;;;;;;18.30;11.75;;;;;;;11.38;93.57;98442.38;2279800;78;20902;-86
2022/09/30 12:07:02;;;;;;;15.70;11.33;;;;;;;11.33;93.60;98447.16;2279313;78;20949;-84
2022/09/30 12:10:03;;;;;;;12.80;9.87;;;;;;;11.29;93.57;98451.50;2279731;78;21373;-85
2022/09/30 12:13:03;;;;;;;13.93;10.28;;;;;;;11.32;93.82;98454.12;2279850;78;20965;-84
2022/09/30 12:16:03;;;;;;;13.00;9.90;;;;;;;11.32;94.13;98453.25;2279187;78;20942;-83
2022/09/30 12:19:03;;;;;;;13.30;10.57;;;;;;;11.31;94.11;98452.38;2249416;77;21050;-85
2022/09/30 12:22:04;;;;;;;11.20;9.90;;;;;;;11.31;94.19;98449.77;2246071;78;20936;-85
2022/09/30 12:25:04;;;;;;;11.27;8.67;;;;;;;11.30;94.26;98453.67;2245415;78;20912;-84
2022/09/30 12:30:15;;;;;;;13.63;9.47;;;;;;;11.24;93.90;98451.02;2244475;78;20893;-86
2022/09/30 12:31:05;;;;;;;11.47;8.97;;;;;;;11.22;94.32;98453.63;2243786;78;20927;-82
2022/09/30 12:34:06;;;;;;;12.03;10.20;;;;;;;11.17;94.55;98454.91;2243138;78;21363;-85
2022/09/30 12:37:06;;;;;;;12.47;10.53;;;;;;;11.18;95.13;98450.56;2244008;78;21260;-83
2022/09/30 12:40:06;;;;;;;16.97;12.10;;;;;;;11.15;94.53;98454.04;2244512;78;20947;-83
2022/09/30 12:43:07;;;;;;;12.27;10.10;;;;;;;11.17;95.09;98451.43;2245861;78;20967;-81
2022/09/30 12:46:07;;;;;;;11.70;9.70;;;;;;;11.23;95.01;98456.67;2248066;78;20924;-82
2022/09/30 12:49:08;;;;;;;10.45;9.23;;;;;;;11.30;94.94;98453.24;2248077;79;20979;-84
2022/09/30 12:52:08;;;;;;;10.73;9.63;;;;;;;11.32;94.73;98459.78;2246984;79;20964;-82
2022/09/30 12:55:08;;;;;;;10.48;9.38;;;;;;;11.35;94.98;98459.35;2246681;78;21414;-81
2022/09/30 12:58:09;;;;;;;11.70;9.67;;;;;;;11.35;94.87;98455.44;2246970;79;20947;-85
2022/09/30 13:01:09;;;;;;;10.43;9.48;;;;;;;11.37;95.19;98458.05;2247194;78;20940;-87
2022/09/30 13:04:09;;;;;;;12.83;10.77;;;;;;;11.33;95.24;98465.01;2246762;78;20892;-85
2022/09/30 13:07:10;;;;;;;11.10;10.00;;;;;;;11.29;94.94;98464.56;2246612;78;20955;-87
2022/09/30 13:10:10;;;;;;;11.70;10.50;;;;;;;11.29;95.29;98468.91;2246679;78;20955;-83
2022/09/30 13:13:11;;;;;;;13.43;12.10;;;;;;;11.26;95.19;98463.65;2247533;78;21423;-86
2022/09/30 13:16:11;;;;;;;14.38;10.93;;;;;;;11.29;95.50;98477.63;2247538;79;20975;-84
2022/09/30 13:19:11;;;;;;;12.60;10.58;;;;;;;11.32;95.73;98470.23;2274220;77;21017;-85
2022/09/30 13:22:12;;;;;;;12.27;11.07;;;;;;;11.30;95.52;98475.45;2279504;78;20925;-86
2022/09/30 13:25:12;;;;;;;12.00;10.80;;;;;;;11.35;95.46;98476.34;2278685;78;21401;-85
2022/09/30 13:28:13;;;;;;;22.53;18.07;;;;;;;11.35;95.33;98480.69;2278172;78;20926;-86
2022/09/30 13:31:14;;;;;;;32.83;24.10;;;;;;;11.34;95.56;98470.67;2279018;78;21201;-87
2022/09/30 13:34:14;;;;;;;22.40;18.42;;;;;;;11.32;95.31;98481.55;2279767;78;20949;-84
2022/09/30 13:37:14;;;;;;;25.40;21.27;;;;;;;11.35;95.63;98478.08;2280469;78;20926;-84
2022/09/30 13:40:14;;;;;;;19.20;17.20;;;;;;;11.31;95.87;98485.04;2280602;78;20949;-85
2022/09/30 13:43:15;;;;;;;27.90;22.97;;;;;;;11.37;96.10;98480.27;2282258;78;20996;-84
2022/09/30 13:46:15;;;;;;;13.50;12.20;;;;;;;11.37;95.80;98479.83;2282250;78;20958;-84
2022/09/30 13:49:17;;;;;;;12.10;11.00;;;;;;;11.39;95.97;98479.83;2281210;78;20997;-85
2022/09/30 13:52:16;;;;;;;12.43;11.23;;;;;;;11.40;96.28;98481.14;2281211;78;20952;-84
2022/09/30 13:55:16;;;;;;;12.47;11.17;;;;;;;11.41;96.29;98486.81;2281623;78;20954;-85
2022/09/30 13:58:17;;;;;;;13.10;11.80;;;;;;;11.46;96.02;98491.61;2281092;78;20965;-84